Time;durP1;ratioP1;P1;durP2;ratioP2;P2;SDS_P1;SDS_P2;PMS_P1;PMS_P2;Temp;Humidity;BMP_temperature;BMP_pressure;BME280_temperature;BME280_humidity;BME280_pressure;Samples;Min_cycle;Max_cycle;Signal;HPM_P1;HPM_P2
2022/09/24 00:01:37;;;;;;;2.23;2.03;;;;;;;23.26;52.34;97223.09;5066113;28;20700;-23
2022/09/24 00:04:06;;;;;;;2.87;2.57;;;;;;;23.39;52.51;97248.09;5055787;28;20211;-23
2022/09/24 00:06:35;;;;;;;3.03;2.30;;;;;;;23.40;52.46;97246.41;5064887;28;20683;-22
2022/09/24 00:09:02;;;;;;;2.50;2.30;;;;;;;23.41;52.86;97244.72;5068028;28;20224;-22
2022/09/24 00:11:28;;;;;;;2.47;2.27;;;;;;;23.41;52.38;97245.56;5057405;28;20265;-23
2022/09/24 00:13:55;;;;;;;2.50;2.30;;;;;;;23.29;52.46;97229.97;5061423;28;20200;-23
2022/09/24 00:16:24;;;;;;;2.67;2.47;;;;;;;23.41;52.31;97245.56;5055931;28;20571;-23
2022/09/24 00:18:51;;;;;;;2.60;2.30;;;;;;;23.39;52.34;97248.09;5068808;28;20224;-25
2022/09/24 00:21:22;;;;;;;2.77;2.57;;;;;;;23.38;52.59;97242.09;5055447;28;20197;-23
2022/09/24 00:23:53;;;;;;;2.60;2.40;;;;;;;23.01;52.70;97176.44;5061580;28;20200;-23
2022/09/24 00:29:05;;;;;;;2.40;2.20;;;;;;;23.41;52.34;97234.47;5067185;28;20410;-23
2022/09/24 00:31:32;;;;;;;2.43;2.23;;;;;;;23.40;52.37;97238.72;5053827;28;20225;-25
2022/09/24 00:33:59;;;;;;;2.60;2.37;;;;;;;23.28;53.05;97213.72;5057121;28;20720;-25
2022/09/24 00:36:26;;;;;;;2.50;2.30;;;;;;;23.32;52.46;97219.75;5068403;28;20231;-23
2022/09/24 00:38:54;;;;;;;2.80;2.60;;;;;;;23.40;52.42;97236.16;5070394;28;20227;-23
2022/09/24 00:41:22;;;;;;;2.70;2.47;;;;;;;23.31;52.65;97224.03;5069701;28;20205;-23
2022/09/24 00:43:49;;;;;;;2.73;2.53;;;;;;;23.39;52.55;97232.72;5058632;28;20681;-23
2022/09/24 00:46:25;;;;;;;2.80;2.50;;;;;;;23.39;52.46;97232.72;5059866;28;20204;-23
2022/09/24 00:48:56;;;;;;;2.43;2.23;;;;;;;23.39;52.50;97230.16;5051679;28;20228;-23
2022/09/24 00:51:23;;;;;;;3.17;2.43;;;;;;;23.35;52.58;97227.50;5057388;28;20256;-22
2022/09/24 00:53:54;;;;;;;2.57;2.37;;;;;;;23.27;52.54;97211.97;5052384;28;20192;-23
2022/09/24 00:56:21;;;;;;;2.70;2.50;;;;;;;23.35;52.41;97219.81;5058157;28;20209;-23
2022/09/24 00:58:51;;;;;;;2.60;2.40;;;;;;;23.20;52.65;97196.44;5057150;28;20212;-22
2022/09/24 01:01:18;;;;;;;2.67;2.47;;;;;;;23.39;52.68;97221.59;5046651;28;20581;-23
2022/09/24 01:03:45;;;;;;;2.70;2.50;;;;;;;23.39;52.67;97217.31;5060966;28;20203;-22
2022/09/24 01:06:11;;;;;;;2.63;2.43;;;;;;;23.35;52.51;97199.28;5061782;28;20659;-23
2022/09/24 01:08:38;;;;;;;2.60;2.40;;;;;;;23.34;52.60;97203.59;5057522;28;20609;-25
2022/09/24 01:11:20;;;;;;;2.80;2.60;;;;;;;23.40;52.70;97207.94;5041860;28;20216;-23
2022/09/24 01:14:09;;;;;;;2.30;2.10;;;;;;;23.40;52.63;97200.25;5070159;28;20196;-23
2022/09/24 01:16:41;;;;;;;2.30;2.10;;;;;;;23.39;52.49;97193.41;5056955;28;20197;-23
2022/09/24 01:19:45;;;;;;;2.60;2.37;;;;;;;23.40;52.57;97197.69;5066600;28;20283;-23
2022/09/24 01:22:24;;;;;;;2.90;2.70;;;;;;;23.39;52.46;97194.25;5059193;28;20201;-22
2022/09/24 01:24:55;;;;;;;2.27;2.07;;;;;;;23.39;52.52;97185.72;5059287;28;20678;-23
2022/09/24 01:27:46;;;;;;;2.53;2.33;;;;;;;23.38;52.65;97189.09;5056564;28;20200;-23
2022/09/24 01:30:14;;;;;;;2.70;2.50;;;;;;;23.38;52.67;97182.25;5062966;28;20232;-23
2022/09/24 01:32:52;;;;;;;2.70;2.50;;;;;;;23.38;52.44;97176.25;5058579;28;20196;-22
2022/09/24 01:35:23;;;;;;;2.60;2.40;;;;;;;23.32;52.52;97161.66;5058781;28;20461;-23
2022/09/24 01:38:01;;;;;;;2.33;2.13;;;;;;;23.28;52.59;97146.19;5063628;28;20197;-22
2022/09/24 01:40:28;;;;;;;2.50;2.30;;;;;;;23.38;52.79;97158.31;5049829;28;20224;-23
2022/09/24 01:42:56;;;;;;;2.50;2.30;;;;;;;23.38;52.75;97164.31;5037885;28;20200;-23
2022/09/24 01:45:22;;;;;;;2.40;2.20;;;;;;;23.18;52.78;97116.94;5038728;28;20297;-23
2022/09/24 01:47:49;;;;;;;2.60;2.40;;;;;;;23.28;52.75;97124.00;5045382;28;20207;-23
2022/09/24 01:50:17;;;;;;;2.60;2.40;;;;;;;23.39;52.70;97144.69;5058468;28;20212;-22
2022/09/24 01:52:59;;;;;;;2.67;2.40;;;;;;;23.38;52.70;97141.25;5056573;28;20209;-23
2022/09/24 01:55:27;;;;;;;2.50;2.30;;;;;;;23.40;52.69;97146.38;5058074;28;20204;-23
2022/09/24 01:57:57;;;;;;;2.70;2.50;;;;;;;23.39;52.63;97145.50;5065368;28;20567;-23
2022/09/24 02:00:23;;;;;;;2.60;2.40;;;;;;;23.39;52.75;97140.38;5053726;28;20219;-23
2022/09/24 02:02:59;;;;;;;2.63;2.43;;;;;;;23.38;52.60;97133.53;5057386;28;20200;-22
2022/09/24 02:05:31;;;;;;;2.70;2.50;;;;;;;23.35;52.82;97127.50;5069701;28;20705;-23
2022/09/24 02:08:22;;;;;;;2.40;2.20;;;;;;;23.40;52.58;97136.13;5067944;28;20206;-23
2022/09/24 02:10:50;;;;;;;2.60;2.40;;;;;;;23.38;52.68;97130.97;5053463;28;20225;-23
2022/09/24 02:13:17;;;;;;;2.40;2.20;;;;;;;23.38;52.64;97128.41;5057313;28;20197;-23
2022/09/24 02:15:45;;;;;;;2.43;2.23;;;;;;;23.39;52.81;97136.97;5049018;28;20199;-23
2022/09/24 02:18:14;;;;;;;2.73;2.40;;;;;;;23.38;52.46;97130.09;5072098;28;20250;-29
2022/09/24 02:20:41;;;;;;;3.13;2.40;;;;;;;23.19;52.70;97105.84;5063467;28;20192;-23
2022/09/24 02:23:09;;;;;;;2.47;2.20;;;;;;;23.37;52.82;97125.81;5054585;28;20684;-23
2022/09/24 02:25:39;;;;;;;2.43;2.23;;;;;;;23.31;52.89;97116.34;5062100;28;20202;-23
2022/09/24 02:28:06;;;;;;;2.20;2.00;;;;;;;23.38;52.82;97127.53;5065032;28;20199;-23
2022/09/24 02:30:39;;;;;;;2.40;2.20;;;;;;;23.16;52.67;97089.56;5062693;28;20660;-23
2022/09/24 02:34:19;;;;;;;2.60;2.40;;;;;;;23.39;52.83;97126.72;5053182;28;20204;-23
2022/09/24 02:35:53;;;;;;;2.67;2.47;;;;;;;23.32;52.70;97112.06;5059205;28;20578;-24
2022/09/24 02:40:58;;;;;;;2.13;2.00;;;;;;;23.35;52.83;97112.09;5033804;28;20210;-31
2022/09/24 02:43:25;;;;;;;2.47;2.27;;;;;;;23.39;52.73;97127.56;5033470;28;20198;-31
2022/09/24 02:45:51;;;;;;;2.47;2.27;;;;;;;23.36;52.66;97121.53;5033746;28;20201;-31
2022/09/24 02:48:18;;;;;;;2.40;2.20;;;;;;;23.39;52.66;97119.03;5032494;28;20618;-31
2022/09/24 02:50:45;;;;;;;2.50;2.30;;;;;;;23.39;52.66;97114.75;5029030;28;20579;-31
2022/09/24 02:53:11;;;;;;;3.20;2.90;;;;;;;23.39;52.74;97116.47;5030540;28;20206;-31
2022/09/24 02:55:38;;;;;;;2.70;2.50;;;;;;;23.36;52.69;97112.13;5022233;28;20232;-31
2022/09/24 02:58:04;;;;;;;2.50;2.30;;;;;;;23.39;52.53;97114.75;5027893;28;20207;-31
2022/09/24 03:00:31;;;;;;;2.33;2.13;;;;;;;23.39;52.54;97112.19;5021552;28;20226;-31
2022/09/24 03:02:58;;;;;;;2.60;2.40;;;;;;;23.37;52.76;97100.19;5019029;28;20213;-31
2022/09/24 03:05:24;;;;;;;2.90;2.30;;;;;;;23.38;52.55;97100.19;5018351;28;20199;-31
2022/09/24 03:07:51;;;;;;;2.60;2.40;;;;;;;23.39;52.68;97101.06;5030585;28;20582;-31
2022/09/24 03:10:17;;;;;;;2.60;2.40;;;;;;;23.38;52.82;97104.47;5019570;28;20223;-31
2022/09/24 03:12:44;;;;;;;2.60;2.40;;;;;;;23.16;52.71;97069.91;5021629;28;20229;-31
2022/09/24 03:15:11;;;;;;;2.50;2.30;;;;;;;23.32;52.70;97089.84;5025188;28;20567;-31
2022/09/24 03:17:37;;;;;;;2.63;2.43;;;;;;;23.38;52.76;97101.91;5028032;28;20201;-31
2022/09/24 03:20:04;;;;;;;2.13;2.03;;;;;;;23.38;52.77;97102.78;5025438;28;20705;-31
2022/09/24 03:22:31;;;;;;;2.40;2.20;;;;;;;23.38;52.84;97109.59;5025066;28;20208;-31
2022/09/24 03:24:57;;;;;;;2.27;2.10;;;;;;;23.36;52.76;97103.59;5023243;28;20205;-31
2022/09/24 03:27:24;;;;;;;2.90;2.47;;;;;;;23.38;53.14;97117.28;5021118;28;20590;-31
2022/09/24 03:32:35;;;;;;;2.50;2.30;;;;;;;23.39;52.86;97117.31;5022168;28;20582;-31
2022/09/24 03:35:02;;;;;;;2.27;2.07;;;;;;;23.38;52.67;97115.59;5025147;28;20207;-31
2022/09/24 03:37:30;;;;;;;2.73;2.23;;;;;;;23.39;52.72;97117.31;5025689;28;20202;-31
2022/09/24 03:39:57;;;;;;;2.83;2.60;;;;;;;23.38;52.74;97113.03;5021323;28;20232;-31
2022/09/24 03:42:23;;;;;;;2.33;2.13;;;;;;;23.38;52.95;97113.03;5021578;28;20190;-31
2022/09/24 03:44:51;;;;;;;2.60;2.40;;;;;;;23.38;52.77;97104.47;5015661;28;20205;-31
2022/09/24 03:47:18;;;;;;;2.33;2.13;;;;;;;23.39;52.59;97119.88;5020434;28;20214;-31
2022/09/24 03:49:44;;;;;;;2.70;2.50;;;;;;;23.38;52.72;97110.47;5025289;28;20470;-31
2022/09/24 03:52:11;;;;;;;2.10;2.00;;;;;;;23.40;52.70;97102.78;5027474;28;20241;-31
2022/09/24 03:54:38;;;;;;;2.70;2.30;;;;;;;23.40;52.69;97100.22;5025523;28;20201;-31
2022/09/24 03:57:04;;;;;;;2.10;2.00;;;;;;;23.39;52.56;97094.22;5015664;28;20198;-31
2022/09/24 03:59:31;;;;;;;2.30;2.10;;;;;;;23.38;52.52;97097.63;5023291;28;20627;-31
2022/09/24 04:01:57;;;;;;;2.87;2.30;;;;;;;23.38;52.81;97107.91;5015506;28;20199;-31
2022/09/24 04:04:24;;;;;;;2.77;2.40;;;;;;;23.39;52.75;97116.47;5023483;28;20577;-31
2022/09/24 04:06:51;;;;;;;2.30;2.10;;;;;;;23.37;52.86;97110.44;5021412;28;20202;-31
2022/09/24 04:09:18;;;;;;;2.50;2.30;;;;;;;23.34;52.68;97098.44;5018147;28;20230;-31
2022/09/24 04:11:44;;;;;;;2.53;2.33;;;;;;;23.38;52.81;97113.88;5027825;28;20214;-31
2022/09/24 04:14:11;;;;;;;2.30;2.10;;;;;;;23.38;52.64;97103.63;5020906;28;20206;-31
2022/09/24 04:16:37;;;;;;;2.43;2.27;;;;;;;23.36;52.77;97098.47;5024029;28;20211;-31
2022/09/24 04:19:04;;;;;;;2.20;2.10;;;;;;;23.35;52.98;97089.03;5018511;28;20218;-31
2022/09/24 04:21:30;;;;;;;2.23;2.03;;;;;;;23.38;52.77;97096.75;5025765;28;20198;-31
2022/09/24 04:23:57;;;;;;;2.60;2.40;;;;;;;23.39;52.87;97088.25;5027575;28;20201;-31
2022/09/24 04:26:24;;;;;;;2.30;2.10;;;;;;;23.38;52.73;97079.69;5029373;28;20209;-31
2022/09/24 04:28:51;;;;;;;2.50;2.30;;;;;;;23.39;52.75;97083.13;5031516;28;20218;-31
2022/09/24 04:31:18;;;;;;;2.50;2.30;;;;;;;23.38;52.60;97084.81;5032046;28;20217;-31
2022/09/24 04:33:45;;;;;;;2.40;2.20;;;;;;;23.38;52.88;97082.25;5028388;28;20204;-31
2022/09/24 04:36:11;;;;;;;2.30;2.10;;;;;;;23.35;52.94;97084.78;5031225;28;20224;-31
2022/09/24 04:38:38;;;;;;;2.50;2.30;;;;;;;23.38;52.84;97089.94;5029021;28;20676;-31
2022/09/24 04:41:05;;;;;;;2.13;2.03;;;;;;;23.38;52.70;97084.81;5028600;28;20204;-31
2022/09/24 04:43:32;;;;;;;2.43;2.23;;;;;;;23.35;53.02;97082.22;5024962;28;20656;-31
2022/09/24 04:45:59;;;;;;;2.33;2.13;;;;;;;23.39;52.75;97085.69;5031985;28;20197;-31
2022/09/24 04:48:25;;;;;;;2.10;2.00;;;;;;;23.38;52.62;97079.69;5032673;28;20679;-31
2022/09/24 04:50:52;;;;;;;2.23;2.03;;;;;;;23.39;52.91;97080.56;5019541;28;20457;-31
2022/09/24 04:53:18;;;;;;;2.10;2.00;;;;;;;23.35;52.47;97065.94;5030476;28;20216;-31
2022/09/24 04:55:46;;;;;;;2.70;2.50;;;;;;;23.39;52.78;97083.97;5016202;28;20207;-31
2022/09/24 04:58:12;;;;;;;2.30;2.10;;;;;;;23.39;52.59;97085.69;5026167;28;20206;-31
2022/09/24 05:00:39;;;;;;;2.60;2.40;;;;;;;23.39;52.75;97095.94;5022741;28;20226;-31
2022/09/24 05:03:06;;;;;;;2.20;2.00;;;;;;;23.38;52.97;97098.50;5027746;28;20230;-31
2022/09/24 05:05:32;;;;;;;3.97;2.30;;;;;;;23.37;52.76;97095.06;5030967;28;20201;-31
2022/09/24 05:08:00;;;;;;;2.20;2.00;;;;;;;23.38;52.83;97096.75;5030275;28;20194;-31
2022/09/24 05:10:27;;;;;;;2.10;1.93;;;;;;;23.38;52.73;97094.19;5025523;28;20229;-31
2022/09/24 05:12:54;;;;;;;2.30;2.10;;;;;;;23.38;52.96;97078.81;5020221;28;20237;-31
2022/09/24 05:15:20;;;;;;;2.03;1.93;;;;;;;23.37;52.83;97077.09;5030600;28;20676;-31
2022/09/24 05:17:47;;;;;;;2.30;2.10;;;;;;;23.38;52.87;97074.56;5030798;28;20212;-31
2022/09/24 05:20:15;;;;;;;2.50;2.30;;;;;;;23.37;53.00;97069.41;5030100;28;20236;-31
2022/09/24 05:22:45;;;;;;;2.13;2.03;;;;;;;23.38;52.92;97074.56;5020736;28;20201;-31
2022/09/24 05:25:12;;;;;;;2.20;2.00;;;;;;;23.39;52.82;97072.88;5022885;28;20209;-31
2022/09/24 05:27:54;;;;;;;2.63;2.20;;;;;;;23.32;52.54;97069.34;5022249;28;20206;-31
2022/09/24 05:30:22;;;;;;;4.77;2.90;;;;;;;23.38;51.76;97082.25;5020272;28;20221;-31
2022/09/24 05:32:50;;;;;;;3.80;2.43;;;;;;;23.39;51.74;97072.88;5030068;28;20218;-31
2022/09/24 05:35:21;;;;;;;3.37;2.80;;;;;;;23.38;51.83;97074.56;5023330;28;20566;-31
2022/09/24 05:37:48;;;;;;;3.67;3.23;;;;;;;23.38;51.64;97072.00;5028292;28;20288;-31
2022/09/24 05:43:00;;;;;;;3.60;3.30;;;;;;;23.32;51.74;97061.66;5026424;28;20257;-31
2022/09/24 05:45:30;;;;;;;4.13;3.13;;;;;;;23.38;51.96;97072.00;5028963;28;20699;-31
2022/09/24 05:47:58;;;;;;;3.13;2.83;;;;;;;23.38;51.98;97073.69;5027830;28;20901;-31
2022/09/24 05:50:25;;;;;;;4.87;2.97;;;;;;;23.37;51.96;97079.66;5029716;28;20217;-31
2022/09/24 05:52:52;;;;;;;11.53;3.00;;;;;;;23.32;52.03;97060.78;5024893;28;20247;-31
2022/09/24 05:55:18;;;;;;;4.83;4.27;;;;;;;23.37;50.45;97077.09;5027770;28;20205;-31
2022/09/24 05:57:45;;;;;;;8.27;4.63;;;;;;;23.36;49.67;97083.91;5026405;28;20201;-31
2022/09/24 06:00:11;;;;;;;6.70;4.67;;;;;;;23.35;49.06;97086.47;5017932;28;20222;-31
2022/09/24 06:02:38;;;;;;;8.27;5.30;;;;;;;23.33;48.90;97080.47;5015140;28;20209;-31
2022/09/24 06:05:05;;;;;;;10.77;5.53;;;;;;;23.32;48.90;97078.72;5028196;28;20300;-31
2022/09/24 06:07:32;;;;;;;9.77;5.17;;;;;;;23.30;47.94;97080.44;5025928;28;20205;-31
2022/09/24 06:09:59;;;;;;;7.47;5.53;;;;;;;23.26;49.00;97074.38;5016891;28;20222;-31
2022/09/24 06:12:26;;;;;;;7.40;5.60;;;;;;;23.25;50.80;97080.34;5026014;28;20224;-31
2022/09/24 06:14:52;;;;;;;7.83;5.10;;;;;;;23.24;49.58;97082.88;5026971;28;20205;-31
2022/09/24 06:17:19;;;;;;;6.57;5.63;;;;;;;23.24;48.01;97094.00;5027485;28;20557;-31
2022/09/24 06:19:46;;;;;;;6.03;4.87;;;;;;;23.21;47.22;97093.91;5022240;28;20222;-31
2022/09/24 06:22:12;;;;;;;7.60;5.27;;;;;;;23.13;46.13;97090.38;5024295;28;20197;-31
2022/09/24 06:24:39;;;;;;;7.53;5.50;;;;;;;23.14;46.44;97094.66;5027895;28;20209;-31
2022/09/24 06:27:06;;;;;;;7.47;5.17;;;;;;;23.11;46.34;97092.03;5028431;28;20631;-31
2022/09/24 06:29:33;;;;;;;7.10;5.20;;;;;;;23.08;46.03;97084.31;5024018;28;20222;-31
2022/09/24 06:32:00;;;;;;;5.50;5.00;;;;;;;23.04;45.99;97084.22;5018842;28;20252;-31
2022/09/24 06:34:27;;;;;;;6.23;5.63;;;;;;;23.00;45.95;97079.88;5028831;28;20213;-31
2022/09/24 06:36:54;;;;;;;6.13;5.53;;;;;;;22.97;45.83;97092.63;5027753;28;20594;-31
2022/09/24 06:39:22;;;;;;;6.23;5.43;;;;;;;22.94;45.94;97093.47;5029025;28;20240;-31
2022/09/24 06:41:50;;;;;;;6.23;5.40;;;;;;;22.90;45.89;97094.25;5029174;28;20206;-31
2022/09/24 06:44:18;;;;;;;6.73;5.57;;;;;;;22.87;46.10;97096.75;5023361;28;20284;-31
2022/09/24 06:46:44;;;;;;;6.33;5.73;;;;;;;22.83;45.88;97099.25;5026863;28;20240;-31
2022/09/24 06:49:11;;;;;;;7.23;5.70;;;;;;;22.79;45.94;97105.13;5027774;28;20309;-31
2022/09/24 06:51:38;;;;;;;6.20;5.60;;;;;;;22.74;45.70;97097.38;5019327;28;20197;-31
2022/09/24 06:54:04;;;;;;;7.17;6.27;;;;;;;22.61;45.86;97087.75;5024098;28;20198;-31
2022/09/24 06:56:31;;;;;;;6.17;5.57;;;;;;;22.66;45.43;97101.50;5024343;28;20194;-31
2022/09/24 06:58:58;;;;;;;6.57;5.57;;;;;;;22.55;46.01;97085.06;5027078;28;20218;-31
2022/09/24 07:01:24;;;;;;;7.57;5.80;;;;;;;22.58;45.78;97095.38;5022854;28;20206;-31
2022/09/24 07:03:51;;;;;;;6.43;5.83;;;;;;;22.56;45.92;97097.03;5026914;28;20221;-31
2022/09/24 07:06:17;;;;;;;7.13;5.60;;;;;;;22.54;45.95;97101.28;5031529;28;20208;-31
2022/09/24 07:08:44;;;;;;;6.70;6.00;;;;;;;22.51;45.96;97105.47;5025343;28;20214;-31
2022/09/24 07:11:12;;;;;;;6.93;6.13;;;;;;;22.48;46.02;97113.94;5029682;28;20205;-31
2022/09/24 07:13:38;;;;;;;6.27;5.67;;;;;;;22.46;46.44;97105.34;5022741;28;20699;-31
2022/09/24 07:16:05;;;;;;;6.27;5.67;;;;;;;22.45;46.45;97103.63;5029511;28;20197;-31
2022/09/24 07:18:31;;;;;;;7.07;5.73;;;;;;;22.37;46.50;97091.50;5027807;28;20680;-31
2022/09/24 07:20:58;;;;;;;6.40;5.80;;;;;;;22.39;46.36;97098.41;5025751;28;20209;-31
2022/09/24 07:23:26;;;;;;;8.50;5.73;;;;;;;22.37;46.71;97092.38;5022951;28;20206;-31
2022/09/24 07:25:56;;;;;;;6.90;5.70;;;;;;;22.36;46.93;97102.59;5028064;28;20240;-31
2022/09/24 07:28:23;;;;;;;8.23;5.50;;;;;;;22.34;47.25;97106.81;5024872;28;20625;-31
2022/09/24 07:30:56;;;;;;;8.53;5.23;;;;;;;22.32;47.36;97099.09;5029787;28;20204;-31
2022/09/24 07:33:22;;;;;;;8.80;5.17;;;;;;;22.31;47.63;97105.06;5031253;28;20308;-31
2022/09/24 07:35:49;;;;;;;7.33;5.10;;;;;;;22.32;47.97;97100.81;5024286;28;20208;-31
2022/09/24 07:38:16;;;;;;;7.27;4.93;;;;;;;22.33;48.08;97110.22;5022463;28;20213;-31
2022/09/24 07:40:43;;;;;;;8.70;5.63;;;;;;;22.34;48.05;97112.81;5026389;28;20256;-31
2022/09/24 07:43:12;;;;;;;6.73;5.00;;;;;;;22.32;48.66;97103.38;5028490;28;20255;-31
2022/09/24 07:45:40;;;;;;;6.23;4.90;;;;;;;22.35;48.52;97109.41;5032066;28;20209;-31
2022/09/24 07:48:07;;;;;;;5.40;4.73;;;;;;;22.31;48.33;97117.88;4990057;28;20220;-31
2022/09/24 07:50:34;;;;;;;9.40;4.83;;;;;;;22.34;48.55;97117.03;5030291;28;20228;-31
2022/09/24 07:53:00;;;;;;;6.80;4.80;;;;;;;22.40;48.59;97125.72;5024391;28;20740;-31
2022/09/24 07:55:27;;;;;;;4.70;4.17;;;;;;;22.41;48.56;97124.03;5028116;28;20325;-31
2022/09/24 07:57:54;;;;;;;6.70;5.00;;;;;;;22.44;48.58;97131.78;5025165;28;20193;-31
2022/09/24 08:00:21;;;;;;;5.93;4.80;;;;;;;22.45;48.78;97126.69;5031736;28;20225;-31
2022/09/24 08:02:47;;;;;;;5.43;4.70;;;;;;;22.45;48.63;97125.81;5030140;28;20225;-31
2022/09/24 08:05:15;;;;;;;8.47;4.80;;;;;;;22.45;48.72;97120.69;5029490;28;20198;-31
2022/09/24 08:07:41;;;;;;;5.70;4.60;;;;;;;22.29;49.03;97099.03;5022420;28;20744;-31
2022/09/24 08:10:08;;;;;;;5.90;4.73;;;;;;;22.50;48.62;97113.97;5022383;28;20596;-31
2022/09/24 08:12:35;;;;;;;6.23;4.53;;;;;;;22.54;48.64;97119.22;5020971;28;20257;-31
2022/09/24 08:15:02;;;;;;;9.43;4.80;;;;;;;22.56;48.54;97122.66;5023057;28;20213;-31
2022/09/24 08:17:28;;;;;;;5.43;4.93;;;;;;;22.51;48.46;97105.47;5022146;28;20249;-31
2022/09/24 08:19:55;;;;;;;5.50;4.90;;;;;;;22.59;48.44;97129.53;5025539;28;20233;-31
2022/09/24 08:22:23;;;;;;;8.23;5.23;;;;;;;22.52;48.51;97112.31;5019302;28;20661;-31
2022/09/24 08:24:52;;;;;;;6.50;4.80;;;;;;;22.54;48.62;97113.22;5022358;28;20210;-31
2022/09/24 08:27:19;;;;;;;5.30;4.40;;;;;;;22.62;48.66;97121.91;5015622;28;20217;-31
2022/09/24 08:29:45;;;;;;;5.30;4.80;;;;;;;22.64;48.73;97123.66;5028006;28;20232;-31
2022/09/24 08:32:12;;;;;;;5.50;4.97;;;;;;;22.64;48.67;97123.66;5019278;28;20216;-31
2022/09/24 08:34:39;;;;;;;5.20;4.67;;;;;;;22.60;48.76;97123.56;5017660;28;20206;-31
2022/09/24 08:37:06;;;;;;;5.90;5.20;;;;;;;22.65;48.87;97127.09;5023946;28;20216;-31
2022/09/24 08:39:33;;;;;;;13.07;5.07;;;;;;;22.65;48.72;97133.06;5029511;28;20752;-31
2022/09/24 08:42:04;;;;;;;6.27;5.27;;;;;;;22.70;48.91;97133.16;5024022;28;21009;-31
2022/09/24 08:47:33;;;;;;;5.57;4.67;;;;;;;22.71;49.03;97134.91;5026936;28;20220;-31
2022/09/24 08:50:10;;;;;;;10.67;5.50;;;;;;;22.72;49.25;97137.47;5026304;28;20221;-31
2022/09/24 08:52:49;;;;;;;6.17;4.87;;;;;;;22.70;49.41;97135.72;5016215;28;20598;-31
2022/09/24 08:55:20;;;;;;;7.20;5.13;;;;;;;22.64;49.45;97122.78;5023468;28;20199;-31
2022/09/24 08:58:04;;;;;;;6.90;5.07;;;;;;;22.72;49.48;97150.28;5032670;28;20688;-31
2022/09/24 09:00:30;;;;;;;5.43;4.80;;;;;;;22.76;49.46;97151.19;5024847;28;20236;-31
2022/09/24 09:03:11;;;;;;;8.70;4.73;;;;;;;22.65;49.49;97129.66;5013257;28;20198;-31
2022/09/24 09:05:58;;;;;;;8.10;5.10;;;;;;;22.66;49.85;97127.13;5013437;28;20202;-31
2022/09/24 09:08:55;;;;;;;5.13;4.63;;;;;;;22.80;49.53;97145.31;5018254;28;20217;-31
2022/09/24 09:11:38;;;;;;;9.67;5.33;;;;;;;22.81;49.93;97147.03;5014971;28;20235;-31
2022/09/24 09:14:25;;;;;;;7.63;5.13;;;;;;;22.80;49.89;97151.28;5011312;28;20634;-31
2022/09/24 09:17:18;;;;;;;5.47;4.43;;;;;;;22.83;50.00;97147.94;5012494;28;20202;-31
2022/09/24 09:19:47;;;;;;;7.30;5.30;;;;;;;22.83;50.23;97143.66;5021308;28;20225;-31
2022/09/24 09:22:19;;;;;;;7.37;4.53;;;;;;;22.84;50.21;97152.22;5030005;28;20233;-31
2022/09/24 09:24:50;;;;;;;6.73;4.77;;;;;;;22.84;50.30;97147.09;5012509;28;20687;-31
2022/09/24 09:27:17;;;;;;;10.20;4.60;;;;;;;22.79;50.33;97143.56;5018466;28;20209;-31
2022/09/24 09:29:46;;;;;;;5.70;4.90;;;;;;;22.85;50.19;97149.66;5022374;28;20229;-31
2022/09/24 09:32:35;;;;;;;7.77;4.20;;;;;;;22.80;50.36;97135.06;5013258;28;20471;-31
2022/09/24 09:35:23;;;;;;;6.27;4.27;;;;;;;22.87;50.46;97154.81;5013252;28;20201;-31
2022/09/24 09:38:19;;;;;;;5.50;4.10;;;;;;;22.87;50.49;97157.38;5020322;28;20665;-31
2022/09/24 09:40:56;;;;;;;4.83;4.40;;;;;;;22.87;50.34;97160.81;5019328;28;20225;-31
2022/09/24 09:43:24;;;;;;;5.70;4.50;;;;;;;22.79;50.40;97144.44;5028154;28;20201;-31
2022/09/24 09:46:03;;;;;;;8.87;4.73;;;;;;;22.89;50.48;97166.81;5029031;28;20212;-31
2022/09/24 09:48:38;;;;;;;9.57;4.97;;;;;;;22.88;50.50;97161.66;5029997;28;20696;-31
2022/09/24 09:51:05;;;;;;;7.60;5.03;;;;;;;22.78;50.42;97139.28;5013664;28;20204;-31
2022/09/24 09:53:32;;;;;;;8.70;5.00;;;;;;;22.84;50.61;97144.53;5007412;28;20218;-31
2022/09/24 09:56:03;;;;;;;6.03;5.13;;;;;;;22.89;50.62;97159.13;5021413;28;20197;-31
2022/09/24 09:58:31;;;;;;;7.77;4.63;;;;;;;22.83;50.54;97148.78;5026156;28;20692;-31
2022/09/24 10:01:14;;;;;;;7.90;4.57;;;;;;;22.91;50.50;97165.16;5012757;28;20205;-31
2022/09/24 10:03:43;;;;;;;6.10;4.47;;;;;;;22.93;50.46;97172.88;5012127;28;20759;-31
2022/09/24 10:06:24;;;;;;;6.83;4.77;;;;;;;22.89;50.45;97164.25;5025360;28;20197;-31
2022/09/24 10:08:50;;;;;;;7.63;5.13;;;;;;;22.89;50.34;97154.00;5018780;28;20221;-31
2022/09/24 10:11:17;;;;;;;7.10;5.10;;;;;;;22.91;50.49;97160.03;5028121;28;20237;-31
2022/09/24 10:13:44;;;;;;;8.87;4.73;;;;;;;22.94;50.49;97162.66;5025876;28;20217;-31
2022/09/24 10:16:12;;;;;;;7.50;4.80;;;;;;;22.85;50.52;97147.09;5018474;28;20213;-31
2022/09/24 10:18:46;;;;;;;10.70;5.80;;;;;;;22.89;50.54;97148.88;5010874;28;20206;-31
2022/09/24 10:21:31;;;;;;;10.07;5.70;;;;;;;22.95;50.83;97168.66;5012719;28;20202;-31
2022/09/24 10:23:58;;;;;;;8.73;5.50;;;;;;;22.90;50.63;97158.31;5011947;28;20201;-31
2022/09/24 10:26:41;;;;;;;13.80;5.13;;;;;;;22.95;50.65;97169.50;5007420;28;20206;-31
2022/09/24 10:32:03;;;;;;;10.03;5.77;;;;;;;22.97;50.63;97164.41;5022427;28;20205;-31
2022/09/24 10:34:30;;;;;;;11.20;5.90;;;;;;;22.96;50.69;97162.69;5027054;28;20221;-31
2022/09/24 10:36:59;;;;;;;10.50;5.70;;;;;;;22.91;50.67;97149.78;5025458;28;20197;-31
2022/09/24 10:39:26;;;;;;;10.93;5.40;;;;;;;22.96;50.70;97162.69;5032464;28;20229;-31
2022/09/24 10:41:54;;;;;;;9.17;5.53;;;;;;;22.96;50.76;97163.56;5033711;28;20229;-31
2022/09/24 10:44:21;;;;;;;10.33;5.90;;;;;;;22.88;50.63;97147.16;5022510;28;20210;-31
2022/09/24 10:47:24;;;;;;;9.27;5.30;;;;;;;22.97;50.76;97166.94;5026546;28;20210;-31
2022/09/24 10:49:56;;;;;;;13.33;5.83;;;;;;;22.97;50.91;97165.25;5016448;28;20599;-31
2022/09/24 10:52:36;;;;;;;9.23;5.47;;;;;;;22.96;50.95;97158.44;5023066;28;20202;-31
2022/09/24 10:55:27;;;;;;;10.93;5.87;;;;;;;22.96;51.03;97155.88;5032200;28;20654;-31
2022/09/24 10:58:03;;;;;;;12.23;6.07;;;;;;;22.96;51.04;97165.25;5017884;28;20198;-31
2022/09/24 11:00:51;;;;;;;7.13;4.97;;;;;;;22.97;51.01;97154.13;5019823;28;20226;-31
2022/09/24 11:03:41;;;;;;;8.70;5.27;;;;;;;22.97;51.03;97155.00;5026145;28;20205;-31
2022/09/24 11:06:54;;;;;;;8.93;5.40;;;;;;;22.99;50.91;97162.72;5025997;28;20273;-31
2022/09/24 11:09:39;;;;;;;7.23;4.93;;;;;;;22.98;50.88;97155.88;5008138;28;20875;-31
2022/09/24 11:12:14;;;;;;;7.43;5.20;;;;;;;22.98;50.98;97154.16;4984120;28;20218;-31
2022/09/24 11:14:57;;;;;;;6.30;4.80;;;;;;;22.97;50.88;97155.00;5034466;28;20787;-31
2022/09/24 11:17:36;;;;;;;7.63;5.20;;;;;;;22.99;51.02;97155.91;5028204;28;20190;-31
2022/09/24 11:20:14;;;;;;;6.90;4.63;;;;;;;22.99;51.08;97153.34;5026221;28;20229;-31
2022/09/24 11:22:47;;;;;;;9.13;5.13;;;;;;;22.98;51.00;97153.31;5026152;28;20695;-31
2022/09/24 11:25:35;;;;;;;9.83;5.40;;;;;;;22.99;51.02;97153.34;5026069;28;20210;-31
2022/09/24 11:28:14;;;;;;;6.80;4.87;;;;;;;23.00;51.08;97147.38;5044278;28;20198;-31
2022/09/24 11:30:50;;;;;;;7.30;4.80;;;;;;;22.92;51.15;97140.41;5026265;28;20213;-31
2022/09/24 11:33:25;;;;;;;8.03;5.27;;;;;;;23.00;51.05;97157.63;5013019;28;20225;-31
2022/09/24 11:36:04;;;;;;;6.37;4.63;;;;;;;23.01;51.08;97155.94;5029248;28;20204;-31
2022/09/24 11:38:56;;;;;;;6.57;4.90;;;;;;;23.01;51.09;97155.94;5031916;28;20280;-31
2022/09/24 11:41:31;;;;;;;7.30;5.00;;;;;;;23.01;50.98;97149.09;5027957;28;20213;-31
2022/09/24 11:44:22;;;;;;;7.83;4.90;;;;;;;23.00;51.19;97142.25;5029734;28;20201;-31
2022/09/24 11:47:01;;;;;;;7.20;5.00;;;;;;;23.00;51.13;97143.94;5027909;28;20600;-31
2022/09/24 11:49:37;;;;;;;5.93;4.77;;;;;;;23.01;51.16;97143.13;5025712;28;20221;-31
2022/09/24 11:52:25;;;;;;;9.50;5.13;;;;;;;23.00;51.15;97149.94;5026325;28;20197;-31
2022/09/24 11:55:00;;;;;;;7.77;4.90;;;;;;;22.96;51.21;97137.91;5031160;28;20225;-31
2022/09/24 11:57:36;;;;;;;6.70;5.00;;;;;;;23.00;51.29;97138.81;5017399;28;20691;-31
2022/09/24 12:00:21;;;;;;;7.03;4.77;;;;;;;22.99;51.32;97143.09;5020558;28;20240;-31
2022/09/24 12:02:49;;;;;;;5.57;4.33;;;;;;;23.00;51.25;97139.69;5018875;28;20209;-31
2022/09/24 12:05:36;;;;;;;7.73;4.90;;;;;;;22.96;51.37;97125.09;5028306;28;21214;-31
2022/09/24 12:08:07;;;;;;;7.80;4.73;;;;;;;22.89;51.16;97114.72;5028839;28;20205;-31